createdAt,value
2018-02-14T00:00:40.134Z,3.70
2018-02-14T00:03:07.862Z,4.25
2018-02-14T00:05:35.615Z,3.58
2018-02-14T00:08:03.322Z,3.12
2018-02-14T00:10:30.994Z,3.22
2018-02-14T00:12:58.691Z,4.25
2018-02-14T00:15:26.421Z,3.20
2018-02-14T00:17:54.127Z,3.95
2018-02-14T00:20:21.883Z,3.95
2018-02-14T00:22:49.580Z,3.70
2018-02-14T00:25:17.302Z,4.43
2018-02-14T00:27:45.015Z,3.85
2018-02-14T00:30:12.738Z,4.00
2018-02-14T00:32:40.430Z,3.65
2018-02-14T00:35:08.103Z,4.20
2018-02-14T00:37:35.882Z,3.50
2018-02-14T00:40:03.527Z,3.53
2018-02-14T00:42:32.666Z,4.03
2018-02-14T00:45:00.327Z,3.87
2018-02-14T00:47:28.008Z,3.83
2018-02-14T00:49:55.708Z,3.47
2018-02-14T00:52:23.398Z,4.10
2018-02-14T00:54:51.077Z,4.40
2018-02-14T00:57:18.766Z,3.53
2018-02-14T00:59:46.433Z,5.20
2018-02-14T01:02:14.123Z,4.28
2018-02-14T01:04:41.830Z,4.53
2018-02-14T01:07:09.531Z,4.60
2018-02-14T01:09:37.271Z,4.45
2018-02-14T01:12:05.102Z,5.10
2018-02-14T01:14:32.766Z,4.40
2018-02-14T01:17:00.682Z,4.65
2018-02-14T01:19:28.346Z,4.40
2018-02-14T01:21:56.049Z,4.43
2018-02-14T01:24:23.719Z,5.68
2018-02-14T01:26:51.405Z,4.78
2018-02-14T01:29:19.082Z,4.50
2018-02-14T01:31:46.873Z,4.90
2018-02-14T01:34:14.538Z,4.60
2018-02-14T01:36:42.246Z,3.97
2018-02-14T01:39:09.914Z,4.30
2018-02-14T01:41:37.696Z,4.22
2018-02-14T01:44:05.382Z,4.97
2018-02-14T01:46:33.058Z,3.90
2018-02-14T01:49:00.758Z,5.00
2018-02-14T01:51:28.625Z,5.25
2018-02-14T01:53:56.419Z,5.00
2018-02-14T01:56:24.098Z,4.80
2018-02-14T01:58:51.769Z,5.78
2018-02-14T02:01:19.433Z,5.10
2018-02-14T02:03:47.292Z,4.65
2018-02-14T02:06:14.957Z,4.65
2018-02-14T02:08:42.648Z,5.68
2018-02-14T02:11:10.305Z,4.97
2018-02-14T02:13:37.992Z,4.65
2018-02-14T02:16:05.646Z,5.65
2018-02-14T02:18:33.343Z,4.78
2018-02-14T02:21:01.039Z,4.40
2018-02-14T02:23:28.714Z,4.65
2018-02-14T02:25:56.379Z,4.62
2018-02-14T02:28:24.079Z,5.05
2018-02-14T02:30:51.799Z,5.10
2018-02-14T02:33:19.510Z,4.75
2018-02-14T02:35:47.176Z,4.95
2018-02-14T02:38:14.871Z,5.55
2018-02-14T02:40:42.547Z,4.90
2018-02-14T02:43:10.239Z,4.55
2018-02-14T02:45:37.897Z,5.00
2018-02-14T02:48:05.601Z,4.37
2018-02-14T02:50:33.237Z,5.20
2018-02-14T02:53:00.935Z,4.78
2018-02-14T02:55:28.646Z,4.80
2018-02-14T02:57:56.372Z,5.05
2018-02-14T03:00:24.035Z,5.50
2018-02-14T03:02:51.735Z,5.30
2018-02-14T03:05:19.401Z,5.40
2018-02-14T03:07:47.118Z,4.95
2018-02-14T03:10:14.761Z,5.45
2018-02-14T03:12:42.449Z,4.93
2018-02-14T03:15:10.109Z,4.93
2018-02-14T03:17:37.807Z,5.43
2018-02-14T03:20:05.466Z,4.68
2018-02-14T03:22:33.153Z,4.75
2018-02-14T03:25:00.831Z,5.43
2018-02-14T03:27:28.525Z,5.97
2018-02-14T03:29:56.208Z,6.28
2018-02-14T03:32:23.889Z,5.80
2018-02-14T03:34:51.557Z,5.50
2018-02-14T03:37:19.262Z,5.47
2018-02-14T03:39:46.942Z,4.60
2018-02-14T03:42:14.616Z,5.90
2018-02-14T03:44:42.350Z,5.70
2018-02-14T03:47:10.057Z,5.65
2018-02-14T03:49:37.943Z,5.55
2018-02-14T03:52:05.649Z,6.40
2018-02-14T03:54:33.303Z,6.20
2018-02-14T03:57:00.986Z,4.62
2018-02-14T03:59:28.678Z,5.85
2018-02-14T04:01:56.363Z,4.70
2018-02-14T04:04:24.020Z,5.30
2018-02-14T04:06:51.925Z,5.60
2018-02-14T04:09:19.585Z,5.87
2018-02-14T04:11:47.265Z,5.60
2018-02-14T04:14:14.933Z,5.00
2018-02-14T04:16:42.630Z,6.12
2018-02-14T04:19:10.294Z,5.55
2018-02-14T04:21:38.001Z,5.25
2018-02-14T04:24:05.653Z,6.03
2018-02-14T04:26:33.363Z,6.22
2018-02-14T04:29:01.038Z,5.85
2018-02-14T04:31:28.748Z,6.70
2018-02-14T04:33:56.402Z,5.35
2018-02-14T04:36:24.101Z,5.65
2018-02-14T04:38:51.771Z,5.97
2018-02-14T04:41:19.466Z,6.37
2018-02-14T04:43:47.214Z,6.10
2018-02-14T04:46:14.898Z,5.57
2018-02-14T04:48:42.565Z,6.12
2018-02-14T04:51:10.264Z,5.53
2018-02-14T04:53:37.944Z,4.47
2018-02-14T04:56:05.650Z,6.85
2018-02-14T04:58:33.304Z,5.75
2018-02-14T05:01:00.961Z,5.57
2018-02-14T05:03:28.674Z,5.82
2018-02-14T05:05:56.332Z,32.75
2018-02-14T05:08:24.026Z,8.80
2018-02-14T05:10:51.756Z,6.25
2018-02-14T05:13:19.439Z,7.43
2018-02-14T05:15:47.100Z,6.00
2018-02-14T05:18:14.785Z,5.40
2018-02-14T05:20:42.466Z,7.00
2018-02-14T05:23:10.282Z,5.82
2018-02-14T05:25:37.933Z,6.85
2018-02-14T05:28:05.643Z,5.60
2018-02-14T05:30:33.381Z,5.53
2018-02-14T05:33:01.106Z,5.55
2018-02-14T05:35:28.822Z,5.50
2018-02-14T05:37:56.523Z,5.75
2018-02-14T05:40:24.177Z,7.78
2018-02-14T05:42:51.878Z,5.80
2018-02-14T05:45:19.557Z,8.02
2018-02-14T05:47:47.298Z,13.30
2018-02-14T05:50:14.964Z,6.80
2018-02-14T05:52:42.753Z,6.05
2018-02-14T05:55:10.434Z,7.45
2018-02-14T05:57:38.140Z,6.12
2018-02-14T06:00:05.798Z,7.90
2018-02-14T06:02:33.537Z,5.22
2018-02-14T06:05:01.215Z,6.75
2018-02-14T06:07:28.910Z,7.50
2018-02-14T06:09:56.598Z,7.15
2018-02-14T06:12:24.326Z,7.55
2018-02-14T06:14:52.006Z,8.20
2018-02-14T06:17:19.754Z,6.12
2018-02-14T06:19:47.413Z,6.85
2018-02-14T06:22:15.113Z,6.43
2018-02-14T06:24:42.821Z,7.65
2018-02-14T06:27:10.522Z,6.70
2018-02-14T06:29:38.204Z,7.05
2018-02-14T06:32:05.914Z,5.97
2018-02-14T06:34:33.569Z,6.72
2018-02-14T06:37:01.321Z,7.60
2018-02-14T06:39:28.995Z,7.30
2018-02-14T06:41:56.721Z,8.02
2018-02-14T06:44:24.437Z,6.97
2018-02-14T06:46:52.158Z,7.95
2018-02-14T06:49:19.836Z,6.95
2018-02-14T06:51:47.625Z,7.80
2018-02-14T06:54:15.287Z,7.00
2018-02-14T06:56:42.946Z,6.65
2018-02-14T06:59:10.792Z,8.60
2018-02-14T07:01:38.446Z,6.95
2018-02-14T07:04:06.138Z,7.20
2018-02-14T07:06:33.793Z,7.18
2018-02-14T07:09:01.578Z,8.25
2018-02-14T07:11:29.307Z,6.55
2018-02-14T07:13:56.968Z,7.87
2018-02-14T07:16:24.678Z,8.68
2018-02-14T07:18:53.067Z,7.05
2018-02-14T07:21:20.773Z,8.50
2018-02-14T07:23:48.470Z,7.55
2018-02-14T07:26:16.168Z,7.57
2018-02-14T07:28:43.858Z,7.97
2018-02-14T07:31:11.553Z,7.85
2018-02-14T07:33:39.235Z,7.43
2018-02-14T07:36:06.934Z,6.93
2018-02-14T07:38:34.606Z,7.85
2018-02-14T07:41:02.334Z,7.80
2018-02-14T07:43:30.007Z,8.55
2018-02-14T07:45:57.706Z,8.25
2018-02-14T07:48:25.421Z,8.73
2018-02-14T07:50:53.272Z,7.50
2018-02-14T07:53:20.949Z,7.22
2018-02-14T07:55:48.808Z,9.63
2018-02-14T07:58:16.469Z,9.63
2018-02-14T08:00:44.336Z,8.45
2018-02-14T08:03:11.992Z,7.40
2018-02-14T08:05:40.683Z,9.10
2018-02-14T08:08:08.402Z,8.95
2018-02-14T08:10:36.065Z,9.30
2018-02-14T08:13:03.763Z,9.07
2018-02-14T08:15:31.446Z,8.85
2018-02-14T08:17:59.171Z,8.93
2018-02-14T08:20:26.864Z,8.75
2018-02-14T08:22:54.559Z,8.93
2018-02-14T08:25:22.239Z,8.55
2018-02-14T08:27:49.939Z,8.80
2018-02-14T08:30:17.585Z,8.73
2018-02-14T08:32:45.297Z,8.68
2018-02-14T08:35:12.983Z,10.65
2018-02-14T08:37:40.747Z,9.90
2018-02-14T08:40:08.422Z,9.82
2018-02-14T08:42:36.114Z,9.50
2018-02-14T08:45:03.766Z,7.03
2018-02-14T08:47:31.467Z,10.50
2018-02-14T08:49:59.133Z,9.98
2018-02-14T08:52:26.850Z,9.63
2018-02-14T08:54:54.501Z,9.02
2018-02-14T08:57:22.222Z,9.73
2018-02-14T08:59:49.946Z,10.35
2018-02-14T09:02:17.654Z,8.35
2018-02-14T09:04:45.320Z,9.88
2018-02-14T09:07:13.018Z,10.25
2018-02-14T09:09:40.687Z,8.88
2018-02-14T09:12:08.398Z,8.07
2018-02-14T09:14:36.121Z,9.45
2018-02-14T09:17:03.852Z,7.97
2018-02-14T09:19:31.525Z,10.50
2018-02-14T09:21:59.237Z,9.55
2018-02-14T09:24:26.927Z,9.75
2018-02-14T09:26:54.642Z,9.88
2018-02-14T09:29:22.303Z,8.90
2018-02-14T09:31:50.008Z,9.38
2018-02-14T09:34:17.713Z,9.70
2018-02-14T09:36:45.418Z,8.80
2018-02-14T09:39:13.101Z,9.38
2018-02-14T09:41:40.806Z,9.10
2018-02-14T09:44:08.587Z,9.73
2018-02-14T09:46:36.312Z,9.82
2018-02-14T09:49:04.103Z,9.40
2018-02-14T09:51:31.794Z,8.13
2018-02-14T09:53:59.472Z,8.90
2018-02-14T09:56:27.166Z,9.50
2018-02-14T09:58:54.861Z,9.73
2018-02-14T10:01:22.569Z,9.32
2018-02-14T10:03:50.232Z,9.18
2018-02-14T10:06:17.946Z,10.10
2018-02-14T10:08:45.647Z,11.12
2018-02-14T10:11:13.402Z,7.43
2018-02-14T10:13:41.041Z,9.48
2018-02-14T10:16:08.778Z,8.18
2018-02-14T10:18:36.457Z,9.05
2018-02-14T10:21:04.205Z,9.05
2018-02-14T10:23:31.922Z,8.80
2018-02-14T10:25:59.603Z,8.45
2018-02-14T10:28:27.282Z,8.48
2018-02-14T10:30:55.110Z,8.68
2018-02-14T10:33:22.775Z,9.70
2018-02-14T10:35:50.402Z,9.47
2018-02-14T10:38:18.082Z,9.18
2018-02-14T10:40:45.778Z,8.15
2018-02-14T10:43:13.399Z,9.80
2018-02-14T10:45:40.998Z,8.70
2018-02-14T10:48:08.634Z,9.73
2018-02-14T10:50:37.279Z,7.90
2018-02-14T10:53:04.905Z,7.53
2018-02-14T10:55:32.498Z,8.17
2018-02-14T10:58:00.126Z,7.80
2018-02-14T11:00:33.112Z,8.87
2018-02-14T11:06:19.287Z,8.60
2018-02-14T11:08:46.911Z,6.80
2018-02-14T11:11:14.546Z,7.47
2018-02-14T11:13:42.158Z,7.77
2018-02-14T11:16:09.819Z,7.03
2018-02-14T11:18:37.602Z,8.90
2018-02-14T11:21:04.500Z,7.73
2018-02-14T11:23:32.222Z,8.60
2018-02-14T11:25:59.874Z,5.87
2018-02-14T11:28:27.484Z,7.50
2018-02-14T11:30:55.122Z,6.67
2018-02-14T11:33:22.832Z,6.70
2018-02-14T11:35:50.482Z,6.30
2018-02-14T11:38:18.409Z,7.00
2018-02-14T11:40:46.318Z,7.90
2018-02-14T11:43:13.917Z,7.70
2018-02-14T11:45:41.511Z,6.87
2018-02-14T11:48:09.156Z,5.67
2018-02-14T11:50:39.434Z,6.17
2018-02-14T11:53:07.094Z,6.87
2018-02-14T11:55:34.721Z,6.90
2018-02-14T11:58:02.390Z,5.63
2018-02-14T12:00:29.977Z,5.17
2018-02-14T12:02:57.626Z,5.73
2018-02-14T12:05:25.242Z,5.83
2018-02-14T12:07:52.869Z,6.07
2018-02-14T12:10:20.475Z,5.53
2018-02-14T12:12:48.106Z,5.63
2018-02-14T12:15:15.726Z,5.17
2018-02-14T12:17:43.349Z,5.30
2018-02-14T12:20:11.019Z,5.50
2018-02-14T12:22:38.669Z,5.00
2018-02-14T12:25:06.266Z,5.93
2018-02-14T12:27:33.902Z,5.60
2018-02-14T12:30:01.515Z,5.80
2018-02-14T12:32:29.143Z,4.73
2018-02-14T12:34:56.754Z,5.60
2018-02-14T12:37:24.402Z,4.90
2018-02-14T12:39:52.015Z,4.70
2018-02-14T12:42:19.663Z,6.03
2018-02-14T12:44:47.287Z,5.13
2018-02-14T12:47:15.039Z,5.90
2018-02-14T12:49:42.648Z,5.33
2018-02-14T12:52:10.307Z,6.00
2018-02-14T12:54:37.927Z,5.90
2018-02-14T12:57:05.615Z,5.97
2018-02-14T12:59:33.240Z,9.30
2018-02-14T13:02:01.006Z,7.90
2018-02-14T13:04:28.638Z,5.93
2018-02-14T13:06:56.261Z,5.83
2018-02-14T13:09:23.857Z,6.60
2018-02-14T13:11:51.578Z,6.33
2018-02-14T13:14:19.217Z,6.00
2018-02-14T13:16:46.843Z,5.73
2018-02-14T13:19:14.451Z,6.03
2018-02-14T13:21:42.095Z,6.13
2018-02-14T13:24:09.706Z,5.23
2018-02-14T13:26:37.369Z,5.50
2018-02-14T13:29:05.058Z,6.10
2018-02-14T13:31:32.691Z,6.73
2018-02-14T13:34:00.278Z,5.90
2018-02-14T13:36:27.918Z,5.50
2018-02-14T13:38:55.558Z,5.20
2018-02-14T13:41:23.348Z,5.83
2018-02-14T13:43:51.010Z,5.80
2018-02-14T13:46:18.657Z,6.00
2018-02-14T13:48:46.302Z,5.60
2018-02-14T13:51:13.909Z,4.80
2018-02-14T13:53:41.522Z,5.60
2018-02-14T13:56:09.273Z,5.40
2018-02-14T13:58:36.870Z,5.80
2018-02-14T14:01:04.641Z,5.30
2018-02-14T14:03:32.259Z,5.33
2018-02-14T14:05:59.885Z,5.03
2018-02-14T14:08:27.551Z,5.20
2018-02-14T14:10:55.187Z,5.00
2018-02-14T14:13:22.797Z,9.70
2018-02-14T14:15:50.447Z,5.50
2018-02-14T14:18:18.038Z,6.27
2018-02-14T14:20:45.693Z,4.43
2018-02-14T14:23:13.283Z,5.67
2018-02-14T14:25:41.063Z,4.80
2018-02-14T14:28:08.658Z,4.57
2018-02-14T14:30:36.283Z,4.33
2018-02-14T14:33:03.910Z,4.80
2018-02-14T14:35:31.530Z,5.10
2018-02-14T14:37:59.145Z,5.13
2018-02-14T14:40:26.773Z,5.30
2018-02-14T14:42:54.521Z,4.93
2018-02-14T14:45:22.147Z,4.43
2018-02-14T14:47:49.764Z,5.37
2018-02-14T14:50:17.394Z,5.20
2018-02-14T14:52:44.987Z,4.77
2018-02-14T14:55:12.626Z,4.87
2018-02-14T14:57:40.235Z,4.13
2018-02-14T15:00:07.886Z,4.53
2018-02-14T15:02:35.477Z,4.23
2018-02-14T15:05:03.232Z,4.10
2018-02-14T15:07:30.846Z,4.80
2018-02-14T15:09:58.550Z,4.30
2018-02-14T15:12:26.138Z,3.40
2018-02-14T15:14:53.795Z,4.13
2018-02-14T15:17:21.383Z,4.67
2018-02-14T15:19:49.055Z,3.93
2018-02-14T15:22:16.650Z,3.97
2018-02-14T15:24:44.303Z,3.97
2018-02-14T15:27:11.928Z,6.57
2018-02-14T15:29:39.654Z,3.30
2018-02-14T15:32:07.199Z,3.83
2018-02-14T15:34:34.797Z,3.27
2018-02-14T15:37:02.406Z,3.80
2018-02-14T15:39:30.045Z,3.40
2018-02-14T15:41:57.639Z,3.93
2018-02-14T15:44:25.303Z,3.13
2018-02-14T15:46:52.923Z,3.57
2018-02-14T15:49:20.543Z,4.70
2018-02-14T15:51:48.133Z,3.27
2018-02-14T15:54:15.750Z,3.47
2018-02-14T15:56:43.365Z,3.77
2018-02-14T15:59:11.021Z,3.73
2018-02-14T16:01:38.594Z,4.37
2018-02-14T16:04:06.232Z,3.30
2018-02-14T16:06:33.838Z,4.10
2018-02-14T16:09:01.549Z,3.80
2018-02-14T16:11:29.162Z,3.60
2018-02-14T16:13:56.906Z,4.23
2018-02-14T16:16:24.560Z,4.47
2018-02-14T16:18:52.170Z,4.23
2018-02-14T16:21:19.782Z,4.17
2018-02-14T16:23:47.394Z,5.13
2018-02-14T16:26:15.039Z,5.23
2018-02-14T16:28:42.691Z,4.40
2018-02-14T16:31:10.321Z,4.67
2018-02-14T16:33:37.910Z,5.63
2018-02-14T16:36:05.523Z,3.83
2018-02-14T16:38:33.186Z,4.87
2018-02-14T16:41:00.814Z,4.87
2018-02-14T16:43:28.418Z,5.47
2018-02-14T16:45:56.039Z,4.80
2018-02-14T16:48:23.640Z,4.27
2018-02-14T16:50:51.253Z,4.40
2018-02-14T16:53:18.853Z,3.90
2018-02-14T16:55:46.478Z,5.53
2018-02-14T16:58:14.074Z,4.60
2018-02-14T17:00:41.708Z,4.93
2018-02-14T17:03:09.410Z,4.50
2018-02-14T17:05:37.120Z,4.90
2018-02-14T17:08:04.821Z,4.70
2018-02-14T17:10:32.449Z,4.27
2018-02-14T17:13:00.031Z,4.60
2018-02-14T17:15:27.675Z,4.63
2018-02-14T17:17:55.346Z,7.73
2018-02-14T17:20:23.096Z,8.17
2018-02-14T17:22:50.693Z,4.80
2018-02-14T17:25:18.353Z,5.63
2018-02-14T17:27:45.955Z,4.83
2018-02-14T17:30:13.716Z,5.80
2018-02-14T17:32:41.360Z,5.40
2018-02-14T17:35:08.983Z,5.37
2018-02-14T17:37:36.615Z,6.53
2018-02-14T17:40:04.264Z,5.73
2018-02-14T17:42:31.898Z,6.00
2018-02-14T17:44:59.542Z,5.83
2018-02-14T17:47:27.151Z,5.70
2018-02-14T17:49:54.789Z,5.17
2018-02-14T17:52:22.426Z,5.10
2018-02-14T17:54:50.066Z,4.50
2018-02-14T17:57:17.669Z,4.70
2018-02-14T17:59:45.282Z,4.10
2018-02-14T18:02:12.879Z,4.80
2018-02-14T18:04:40.503Z,5.20
2018-02-14T18:07:08.251Z,5.77
2018-02-14T18:09:35.932Z,5.03
2018-02-14T18:12:03.610Z,4.97
2018-02-14T18:14:31.277Z,5.00
2018-02-14T18:16:58.916Z,5.20
2018-02-14T18:19:26.522Z,5.23
2018-02-14T18:21:54.161Z,5.20
2018-02-14T18:24:21.837Z,5.20
2018-02-14T18:26:49.553Z,5.22
2018-02-14T18:29:17.305Z,5.57
2018-02-14T18:31:44.938Z,5.50
2018-02-14T18:34:12.859Z,5.60
2018-02-14T18:36:40.500Z,5.07
2018-02-14T18:39:08.115Z,5.60
2018-02-14T18:41:35.770Z,10.23
2018-02-14T18:44:03.427Z,8.67
2018-02-14T18:46:31.165Z,5.63
2018-02-14T18:48:58.877Z,6.22
2018-02-14T18:51:26.575Z,6.78
2018-02-14T18:53:54.248Z,6.65
2018-02-14T18:56:21.911Z,5.70
2018-02-14T18:58:49.527Z,5.23
2018-02-14T19:01:17.154Z,5.77
2018-02-14T19:03:44.888Z,6.57
2018-02-14T19:06:12.521Z,5.60
2018-02-14T19:08:40.111Z,5.53
2018-02-14T19:11:07.749Z,5.10
2018-02-14T19:13:35.422Z,6.22
2018-02-14T19:16:03.229Z,7.00
2018-02-14T19:18:30.928Z,6.43
2018-02-14T19:20:58.553Z,7.27
2018-02-14T19:23:26.205Z,6.30
2018-02-14T19:25:53.837Z,6.50
2018-02-14T19:28:21.513Z,7.07
2018-02-14T19:30:49.243Z,5.40
2018-02-14T19:33:16.930Z,6.25
2018-02-14T19:35:44.699Z,6.87
2018-02-14T19:38:12.374Z,7.85
2018-02-14T19:40:40.009Z,6.03
2018-02-14T19:43:07.662Z,6.85
2018-02-14T19:45:35.358Z,6.12
2018-02-14T19:48:02.980Z,6.70
2018-02-14T19:50:30.714Z,6.72
2018-02-14T19:52:58.396Z,7.10
2018-02-14T19:55:26.118Z,5.78
2018-02-14T19:57:53.769Z,7.75
2018-02-14T20:00:21.488Z,7.70
2018-02-14T20:02:49.194Z,7.15
2018-02-14T20:05:16.916Z,6.90
2018-02-14T20:07:44.593Z,6.82
2018-02-14T20:10:12.290Z,6.97
2018-02-14T20:12:39.980Z,7.15
2018-02-14T20:15:07.683Z,7.25
2018-02-14T20:17:35.355Z,7.70
2018-02-14T20:20:03.090Z,7.07
2018-02-14T20:22:30.765Z,8.77
2018-02-14T20:24:58.462Z,6.60
2018-02-14T20:27:26.262Z,13.32
2018-02-14T20:29:53.966Z,8.30
2018-02-14T20:32:21.566Z,7.40
2018-02-14T20:34:49.272Z,8.00
2018-02-14T20:37:16.967Z,6.72
2018-02-14T20:39:44.692Z,6.97
2018-02-14T20:42:12.398Z,6.97
2018-02-14T20:44:40.111Z,7.55
2018-02-14T20:47:07.789Z,6.47
2018-02-14T20:49:35.511Z,7.35
2018-02-14T20:52:03.310Z,7.62
2018-02-14T20:54:31.034Z,12.27
2018-02-14T20:56:58.716Z,6.45
2018-02-14T20:59:26.436Z,7.65
2018-02-14T21:01:54.153Z,8.00
2018-02-14T21:04:21.872Z,7.25
2018-02-14T21:06:49.507Z,8.00
2018-02-14T21:09:17.220Z,8.00
2018-02-14T21:11:44.894Z,8.32
2018-02-14T21:14:12.607Z,6.75
2018-02-14T21:16:40.282Z,7.05
2018-02-14T21:19:07.991Z,7.43
2018-02-14T21:21:35.730Z,7.40
2018-02-14T21:24:03.435Z,7.85
2018-02-14T21:26:31.111Z,7.82
2018-02-14T21:28:58.832Z,7.65
2018-02-14T21:31:26.525Z,7.78
2018-02-14T21:33:54.242Z,8.30
2018-02-14T21:36:21.831Z,9.10
2018-02-14T21:38:49.579Z,8.98
2018-02-14T21:41:17.290Z,9.32
2018-02-14T21:43:45.009Z,7.75
2018-02-14T21:46:12.727Z,8.25
2018-02-14T21:48:40.416Z,9.20
2018-02-14T21:51:08.123Z,8.30
2018-02-14T21:53:35.888Z,8.70
2018-02-14T21:56:03.606Z,8.70
2018-02-14T21:58:31.375Z,8.77
2018-02-14T22:00:59.057Z,8.85
2018-02-14T22:03:26.756Z,9.73
2018-02-14T22:05:54.459Z,7.32
2018-02-14T22:08:22.097Z,10.07
2018-02-14T22:10:49.714Z,8.43
2018-02-14T22:13:17.347Z,8.53
2018-02-14T22:15:44.952Z,8.33
2018-02-14T22:18:12.653Z,7.87
2018-02-14T22:20:40.502Z,8.07
2018-02-14T22:23:08.247Z,10.40
2018-02-14T22:25:36.021Z,9.32
2018-02-14T22:28:03.715Z,9.70
2018-02-14T22:30:31.412Z,9.40
2018-02-14T22:32:59.230Z,10.45
2018-02-14T22:35:26.898Z,9.17
2018-02-14T22:37:54.617Z,9.00
2018-02-14T22:40:22.334Z,9.50
2018-02-14T22:42:50.011Z,9.55
2018-02-14T22:45:17.727Z,9.20
2018-02-14T22:47:45.398Z,8.63
2018-02-14T22:50:13.110Z,9.05
2018-02-14T22:52:40.738Z,9.40
2018-02-14T22:55:08.377Z,10.23
2018-02-14T22:57:36.032Z,9.95
2018-02-14T23:00:03.740Z,9.70
2018-02-14T23:02:31.406Z,9.43
2018-02-14T23:04:59.102Z,11.03
2018-02-14T23:07:26.833Z,10.90
2018-02-14T23:09:54.537Z,8.90
2018-02-14T23:12:22.350Z,10.10
2018-02-14T23:14:50.080Z,10.52
2018-02-14T23:17:17.758Z,10.43
2018-02-14T23:19:45.459Z,10.05
2018-02-14T23:22:13.190Z,11.00
2018-02-14T23:24:40.957Z,8.55
2018-02-14T23:27:08.629Z,10.50
2018-02-14T23:29:36.360Z,10.15
2018-02-14T23:32:04.096Z,11.63
2018-02-14T23:34:31.793Z,10.32
2018-02-14T23:36:59.482Z,10.13
2018-02-14T23:39:27.178Z,11.93
2018-02-14T23:41:54.860Z,11.55
2018-02-14T23:44:22.615Z,10.90
2018-02-14T23:46:50.316Z,9.73
2018-02-14T23:49:18.026Z,11.05
2018-02-14T23:51:45.713Z,10.93
2018-02-14T23:54:13.544Z,10.07
2018-02-14T23:56:41.229Z,9.85
2018-02-14T23:59:08.938Z,10.05
